sensor_id;sensor_type;location;lat;lon;timestamp;pressure;altitude;pressure_sealevel;temperature;humidity
51715;BME280;39115;59.332;18.034;2022-07-29T00:00:43;101809.31;;;16.07;53.70
51715;BME280;39115;59.332;18.034;2022-07-29T00:03:12;101797.88;;;16.05;54.01
51715;BME280;39115;59.332;18.034;2022-07-29T00:05:41;101801.56;;;16.04;53.95
51715;BME280;39115;59.332;18.034;2022-07-29T00:08:08;101803.69;;;16.01;53.73
51715;BME280;39115;59.332;18.034;2022-07-29T00:10:34;101801.13;;;15.99;54.01
51715;BME280;39115;59.332;18.034;2022-07-29T00:12:59;101801.28;;;15.98;53.68
51715;BME280;39115;59.332;18.034;2022-07-29T00:15:25;101802.13;;;15.98;53.92
51715;BME280;39115;59.332;18.034;2022-07-29T00:17:50;101801.44;;;15.96;54.14
51715;BME280;39115;59.332;18.034;2022-07-29T00:20:16;101802.44;;;15.95;54.30
51715;BME280;39115;59.332;18.034;2022-07-29T00:22:41;101807.94;;;15.93;54.02
51715;BME280;39115;59.332;18.034;2022-07-29T00:25:07;101799.03;;;15.93;53.87
51715;BME280;39115;59.332;18.034;2022-07-29T00:27:34;101803.69;;;15.91;54.38
51715;BME280;39115;59.332;18.034;2022-07-29T00:29:59;101808.22;;;15.90;54.10
51715;BME280;39115;59.332;18.034;2022-07-29T00:32:24;101795.78;;;15.89;54.27
51715;BME280;39115;59.332;18.034;2022-07-29T00:34:50;101804.81;;;15.88;54.34
51715;BME280;39115;59.332;18.034;2022-07-29T00:37:34;101797.75;;;15.87;54.30
51715;BME280;39115;59.332;18.034;2022-07-29T00:39:59;101807.81;;;15.85;54.21
51715;BME280;39115;59.332;18.034;2022-07-29T00:42:25;101795.38;;;15.84;54.38
51715;BME280;39115;59.332;18.034;2022-07-29T00:44:51;101794.63;;;15.82;54.47
51715;BME280;39115;59.332;18.034;2022-07-29T00:47:16;101798.47;;;15.79;54.41
51715;BME280;39115;59.332;18.034;2022-07-29T00:49:42;101787.31;;;15.74;54.77
51715;BME280;39115;59.332;18.034;2022-07-29T00:52:09;101791.25;;;15.70;54.78
51715;BME280;39115;59.332;18.034;2022-07-29T00:54:37;101778.97;;;15.68;54.75
51715;BME280;39115;59.332;18.034;2022-07-29T00:57:03;101778.28;;;15.65;54.84
51715;BME280;39115;59.332;18.034;2022-07-29T00:59:29;101787.63;;;15.61;54.70
51715;BME280;39115;59.332;18.034;2022-07-29T01:01:54;101783.50;;;15.57;55.11
51715;BME280;39115;59.332;18.034;2022-07-29T01:04:21;101785.34;;;15.57;55.04
51715;BME280;39115;59.332;18.034;2022-07-29T01:06:48;101783.66;;;15.56;55.00
51715;BME280;39115;59.332;18.034;2022-07-29T01:09:15;101783.81;;;15.54;55.47
51715;BME280;39115;59.332;18.034;2022-07-29T01:11:42;101782.94;;;15.54;55.56
51715;BME280;39115;59.332;18.034;2022-07-29T01:14:08;101790.84;;;15.55;55.76
51715;BME280;39115;59.332;18.034;2022-07-29T01:16:44;101792.41;;;15.58;55.04
51715;BME280;39115;59.332;18.034;2022-07-29T01:21:57;101787.16;;;15.56;55.18
51715;BME280;39115;59.332;18.034;2022-07-29T01:24:46;101783.66;;;15.56;55.07
51715;BME280;39115;59.332;18.034;2022-07-29T01:29:58;101782.78;;;15.55;55.40
51715;BME280;39115;59.332;18.034;2022-07-29T01:32:26;101788.31;;;15.54;55.83
51715;BME280;39115;59.332;18.034;2022-07-29T01:35:06;101781.13;;;15.54;55.65
51715;BME280;39115;59.332;18.034;2022-07-29T01:40:13;101779.53;;;15.52;56.33
51715;BME280;39115;59.332;18.034;2022-07-29T01:42:44;101779.53;;;15.52;56.38
51715;BME280;39115;59.332;18.034;2022-07-29T01:45:22;101784.06;;;15.51;56.42
51715;BME280;39115;59.332;18.034;2022-07-29T01:48:04;101785.78;;;15.52;55.94
51715;BME280;39115;59.332;18.034;2022-07-29T01:50:36;101788.63;;;15.51;56.29
51715;BME280;39115;59.332;18.034;2022-07-29T01:53:09;101786.06;;;15.49;56.41
51715;BME280;39115;59.332;18.034;2022-07-29T01:55:39;101791.41;;;15.49;56.73
51715;BME280;39115;59.332;18.034;2022-07-29T01:58:06;101789.72;;;15.48;56.73
51715;BME280;39115;59.332;18.034;2022-07-29T02:00:34;101787.91;;;15.48;56.97
51715;BME280;39115;59.332;18.034;2022-07-29T02:03:11;101791.56;;;15.47;56.70
51715;BME280;39115;59.332;18.034;2022-07-29T02:05:38;101788.31;;;15.44;56.88
51715;BME280;39115;59.332;18.034;2022-07-29T02:08:05;101778.56;;;15.43;57.06
51715;BME280;39115;59.332;18.034;2022-07-29T02:10:33;101781.25;;;15.43;56.76
51715;BME280;39115;59.332;18.034;2022-07-29T02:13:00;101788.59;;;15.41;57.16
51715;BME280;39115;59.332;18.034;2022-07-29T02:15:28;101787.75;;;15.40;56.81
51715;BME280;39115;59.332;18.034;2022-07-29T02:17:58;101785.34;;;15.37;56.91
51715;BME280;39115;59.332;18.034;2022-07-29T02:20:26;101784.66;;;15.35;57.34
51715;BME280;39115;59.332;18.034;2022-07-29T02:22:53;101790.16;;;15.33;57.35
51715;BME280;39115;59.332;18.034;2022-07-29T02:25:20;101788.44;;;15.32;57.10
51715;BME280;39115;59.332;18.034;2022-07-29T02:27:49;101787.59;;;15.32;57.66
51715;BME280;39115;59.332;18.034;2022-07-29T02:30:15;101788.75;;;15.29;57.44
51715;BME280;39115;59.332;18.034;2022-07-29T02:32:43;101788.91;;;15.28;57.81
51715;BME280;39115;59.332;18.034;2022-07-29T02:35:12;101783.66;;;15.26;57.58
51715;BME280;39115;59.332;18.034;2022-07-29T02:37:39;101785.50;;;15.26;57.80
51715;BME280;39115;59.332;18.034;2022-07-29T02:40:09;101794.53;;;15.25;57.70
51715;BME280;39115;59.332;18.034;2022-07-29T02:42:37;101795.66;;;15.22;57.59
51715;BME280;39115;59.332;18.034;2022-07-29T02:45:05;101788.59;;;15.21;57.92
51715;BME280;39115;59.332;18.034;2022-07-29T02:47:36;101800.16;;;15.22;57.95
51715;BME280;39115;59.332;18.034;2022-07-29T02:50:13;101799.19;;;15.23;57.74
51715;BME280;39115;59.332;18.034;2022-07-29T02:52:57;101800.88;;;15.24;57.72
51715;BME280;39115;59.332;18.034;2022-07-29T02:55:40;101798.03;;;15.25;58.11
51715;BME280;39115;59.332;18.034;2022-07-29T02:58:22;101799.63;;;15.28;57.98
51715;BME280;39115;59.332;18.034;2022-07-29T03:00:55;101797.78;;;15.28;58.52
51715;BME280;39115;59.332;18.034;2022-07-29T03:03:22;101802.31;;;15.28;58.59
51715;BME280;39115;59.332;18.034;2022-07-29T03:05:55;101803.84;;;15.30;58.56
51715;BME280;39115;59.332;18.034;2022-07-29T03:08:22;101803.00;;;15.30;58.79
51715;BME280;39115;59.332;18.034;2022-07-29T03:10:48;101805.66;;;15.30;58.94
51715;BME280;39115;59.332;18.034;2022-07-29T03:13:14;101805.56;;;15.31;59.00
51715;BME280;39115;59.332;18.034;2022-07-29T03:15:43;101809.91;;;15.32;59.03
51715;BME280;39115;59.332;18.034;2022-07-29T03:18:09;101815.16;;;15.34;59.01
51715;BME280;39115;59.332;18.034;2022-07-29T03:20:37;101814.28;;;15.33;58.84
51715;BME280;39115;59.332;18.034;2022-07-29T03:23:02;101816.97;;;15.33;58.77
51715;BME280;39115;59.332;18.034;2022-07-29T03:25:28;101816.84;;;15.35;58.67
51715;BME280;39115;59.332;18.034;2022-07-29T03:27:53;101814.00;;;15.37;59.16
51715;BME280;39115;59.332;18.034;2022-07-29T03:30:19;101826.28;;;15.39;59.03
51715;BME280;39115;59.332;18.034;2022-07-29T03:32:45;101824.31;;;15.41;58.47
51715;BME280;39115;59.332;18.034;2022-07-29T03:35:10;101819.69;;;15.43;58.68
51715;BME280;39115;59.332;18.034;2022-07-29T03:37:36;101816.69;;;15.46;58.50
51715;BME280;39115;59.332;18.034;2022-07-29T03:40:03;101821.22;;;15.46;58.40
51715;BME280;39115;59.332;18.034;2022-07-29T03:42:35;101817.41;;;15.48;58.29
51715;BME280;39115;59.332;18.034;2022-07-29T03:45:06;101818.97;;;15.51;58.28
51715;BME280;39115;59.332;18.034;2022-07-29T03:47:34;101817.97;;;15.52;58.24
51715;BME280;39115;59.332;18.034;2022-07-29T03:50:06;101821.22;;;15.56;58.56
51715;BME280;39115;59.332;18.034;2022-07-29T03:52:31;101820.94;;;15.59;58.33
51715;BME280;39115;59.332;18.034;2022-07-29T03:54:57;101824.19;;;15.62;58.23
51715;BME280;39115;59.332;18.034;2022-07-29T03:57:27;101814.84;;;15.67;58.33
51715;BME280;39115;59.332;18.034;2022-07-29T03:59:54;101814.59;;;15.70;58.11
51715;BME280;39115;59.332;18.034;2022-07-29T04:02:20;101823.19;;;15.73;58.13
51715;BME280;39115;59.332;18.034;2022-07-29T04:04:46;101822.78;;;15.78;57.75
51715;BME280;39115;59.332;18.034;2022-07-29T04:07:13;101826.72;;;15.84;57.97
51715;BME280;39115;59.332;18.034;2022-07-29T04:09:39;101831.56;;;15.90;57.47
51715;BME280;39115;59.332;18.034;2022-07-29T04:12:04;101829.44;;;15.93;57.45
51715;BME280;39115;59.332;18.034;2022-07-29T04:14:33;101834.34;;;15.98;57.32
51715;BME280;39115;59.332;18.034;2022-07-29T04:17:00;101836.59;;;16.03;57.18
51715;BME280;39115;59.332;18.034;2022-07-29T04:19:25;101823.72;;;16.06;57.39
51715;BME280;39115;59.332;18.034;2022-07-29T04:21:51;101840.28;;;16.11;57.07
51715;BME280;39115;59.332;18.034;2022-07-29T04:24:17;101839.84;;;16.16;57.34
51715;BME280;39115;59.332;18.034;2022-07-29T04:26:42;101839.41;;;16.21;57.04
51715;BME280;39115;59.332;18.034;2022-07-29T04:29:08;101832.75;;;16.25;57.22
51715;BME280;39115;59.332;18.034;2022-07-29T04:31:33;101834.13;;;16.29;57.30
51715;BME280;39115;59.332;18.034;2022-07-29T04:33:59;101834.56;;;16.34;56.92
51715;BME280;39115;59.332;18.034;2022-07-29T04:36:24;101834.25;;;16.37;57.54
51715;BME280;39115;59.332;18.034;2022-07-29T04:38:49;101835.50;;;16.43;57.41
51715;BME280;39115;59.332;18.034;2022-07-29T04:41:15;101828.69;;;16.49;57.32
51715;BME280;39115;59.332;18.034;2022-07-29T04:43:40;101833.47;;;16.55;57.34
51715;BME280;39115;59.332;18.034;2022-07-29T04:46:06;101834.56;;;16.62;57.45
51715;BME280;39115;59.332;18.034;2022-07-29T04:48:31;101831.28;;;16.68;57.53
51715;BME280;39115;59.332;18.034;2022-07-29T04:50:57;101829.72;;;16.75;57.43
51715;BME280;39115;59.332;18.034;2022-07-29T04:53:22;101835.34;;;16.82;57.37
51715;BME280;39115;59.332;18.034;2022-07-29T04:55:48;101832.03;;;16.88;57.41
51715;BME280;39115;59.332;18.034;2022-07-29T04:58:13;101835.19;;;16.94;57.35
51715;BME280;39115;59.332;18.034;2022-07-29T05:00:39;101832.72;;;17.00;57.15
51715;BME280;39115;59.332;18.034;2022-07-29T05:03:04;101827.59;;;17.07;57.11
51715;BME280;39115;59.332;18.034;2022-07-29T05:05:30;101837.72;;;17.13;57.14
51715;BME280;39115;59.332;18.034;2022-07-29T05:07:55;101838.97;;;17.19;57.39
51715;BME280;39115;59.332;18.034;2022-07-29T05:10:21;101836.84;;;17.22;57.30
51715;BME280;39115;59.332;18.034;2022-07-29T05:12:47;101830.84;;;17.29;57.14
51715;BME280;39115;59.332;18.034;2022-07-29T05:15:13;101840.84;;;17.36;56.98
51715;BME280;39115;59.332;18.034;2022-07-29T05:17:38;101839.06;;;17.45;56.89
51715;BME280;39115;59.332;18.034;2022-07-29T05:20:05;101838.31;;;17.53;56.55
51715;BME280;39115;59.332;18.034;2022-07-29T05:22:30;101841.53;;;17.57;56.12
51715;BME280;39115;59.332;18.034;2022-07-29T05:24:56;101840.06;;;17.62;55.90
51715;BME280;39115;59.332;18.034;2022-07-29T05:27:21;101842.97;;;17.69;55.62
51715;BME280;39115;59.332;18.034;2022-07-29T05:29:47;101850.44;;;17.75;55.41
51715;BME280;39115;59.332;18.034;2022-07-29T05:32:12;101848.81;;;17.82;55.26
51715;BME280;39115;59.332;18.034;2022-07-29T05:34:38;101849.88;;;17.90;54.90
51715;BME280;39115;59.332;18.034;2022-07-29T05:37:04;101846.09;;;18.00;54.70
51715;BME280;39115;59.332;18.034;2022-07-29T05:39:29;101857.81;;;18.09;54.75
51715;BME280;39115;59.332;18.034;2022-07-29T05:41:54;101861.41;;;18.18;54.54
51715;BME280;39115;59.332;18.034;2022-07-29T05:44:20;101861.44;;;18.26;54.25
51715;BME280;39115;59.332;18.034;2022-07-29T05:46:45;101861.50;;;18.35;54.30
51715;BME280;39115;59.332;18.034;2022-07-29T05:49:11;101859.69;;;18.43;53.99
51715;BME280;39115;59.332;18.034;2022-07-29T05:51:37;101859.75;;;18.52;53.75
51715;BME280;39115;59.332;18.034;2022-07-29T05:54:02;101851.69;;;18.60;53.28
51715;BME280;39115;59.332;18.034;2022-07-29T05:56:27;101854.59;;;18.67;52.86
51715;BME280;39115;59.332;18.034;2022-07-29T05:58:53;101856.34;;;18.76;52.45
51715;BME280;39115;59.332;18.034;2022-07-29T06:01:19;101856.38;;;18.84;51.03
51715;BME280;39115;59.332;18.034;2022-07-29T06:03:44;101860.09;;;18.91;50.61
51715;BME280;39115;59.332;18.034;2022-07-29T06:06:10;101867.41;;;18.99;49.83
51715;BME280;39115;59.332;18.034;2022-07-29T06:08:36;101859.69;;;19.04;49.50
51715;BME280;39115;59.332;18.034;2022-07-29T06:11:02;101859.84;;;19.11;48.96
51715;BME280;39115;59.332;18.034;2022-07-29T06:13:28;101858.34;;;19.17;48.92
51715;BME280;39115;59.332;18.034;2022-07-29T06:15:53;101861.91;;;19.25;48.62
51715;BME280;39115;59.332;18.034;2022-07-29T06:18:19;101865.63;;;19.33;48.36
51715;BME280;39115;59.332;18.034;2022-07-29T06:20:46;101864.63;;;19.42;47.72
51715;BME280;39115;59.332;18.034;2022-07-29T06:23:11;101876.31;;;19.51;46.75
51715;BME280;39115;59.332;18.034;2022-07-29T06:25:37;101873.78;;;19.57;45.76
51715;BME280;39115;59.332;18.034;2022-07-29T06:28:04;101881.06;;;19.65;45.21
51715;BME280;39115;59.332;18.034;2022-07-29T06:30:30;101882.75;;;19.74;44.73
51715;BME280;39115;59.332;18.034;2022-07-29T06:32:55;101879.03;;;19.84;44.86
51715;BME280;39115;59.332;18.034;2022-07-29T06:35:20;101884.44;;;19.92;44.58
51715;BME280;39115;59.332;18.034;2022-07-29T06:37:46;101882.75;;;19.99;44.21
51715;BME280;39115;59.332;18.034;2022-07-29T06:40:12;101878.22;;;20.08;43.69
51715;BME280;39115;59.332;18.034;2022-07-29T06:42:56;101889.84;;;20.17;43.37
51715;BME280;39115;59.332;18.034;2022-07-29T06:45:22;101879.72;;;20.27;43.13
51715;BME280;39115;59.332;18.034;2022-07-29T06:47:47;101885.25;;;20.34;43.03
51715;BME280;39115;59.332;18.034;2022-07-29T06:50:13;101889.13;;;20.40;42.64
51715;BME280;39115;59.332;18.034;2022-07-29T06:52:39;101888.28;;;20.47;42.29
51715;BME280;39115;59.332;18.034;2022-07-29T06:55:05;101885.91;;;20.52;41.76
51715;BME280;39115;59.332;18.034;2022-07-29T06:57:31;101886.06;;;20.59;41.51
51715;BME280;39115;59.332;18.034;2022-07-29T06:59:56;101889.06;;;20.64;41.37
51715;BME280;39115;59.332;18.034;2022-07-29T07:02:22;101886.69;;;20.69;41.17
51715;BME280;39115;59.332;18.034;2022-07-29T07:04:47;101886.69;;;20.78;40.97
51715;BME280;39115;59.332;18.034;2022-07-29T07:07:13;101886.66;;;20.86;40.20
51715;BME280;39115;59.332;18.034;2022-07-29T07:09:38;101892.41;;;20.91;40.22
51715;BME280;39115;59.332;18.034;2022-07-29T07:12:04;101889.00;;;20.97;40.21
51715;BME280;39115;59.332;18.034;2022-07-29T07:14:29;101884.75;;;21.03;40.00
51715;BME280;39115;59.332;18.034;2022-07-29T07:16:54;101892.16;;;21.09;39.70
51715;BME280;39115;59.332;18.034;2022-07-29T07:19:20;101891.63;;;21.14;39.73
51715;BME280;39115;59.332;18.034;2022-07-29T07:21:45;101891.56;;;21.22;39.83
51715;BME280;39115;59.332;18.034;2022-07-29T07:24:10;101879.00;;;21.29;39.79
51715;BME280;39115;59.332;18.034;2022-07-29T07:26:36;101875.78;;;21.34;39.53
51715;BME280;39115;59.332;18.034;2022-07-29T07:29:03;101882.00;;;21.35;39.69
51715;BME280;39115;59.332;18.034;2022-07-29T07:31:28;101881.09;;;21.42;39.36
51715;BME280;39115;59.332;18.034;2022-07-29T07:33:53;101879.38;;;21.50;39.46
51715;BME280;39115;59.332;18.034;2022-07-29T07:36:19;101885.09;;;21.55;39.46
51715;BME280;39115;59.332;18.034;2022-07-29T07:38:44;101882.56;;;21.61;39.04
51715;BME280;39115;59.332;18.034;2022-07-29T07:41:10;101873.84;;;21.66;38.93
51715;BME280;39115;59.332;18.034;2022-07-29T07:43:35;101879.22;;;21.74;38.95
51715;BME280;39115;59.332;18.034;2022-07-29T07:46:00;101874.75;;;21.82;39.07
51715;BME280;39115;59.332;18.034;2022-07-29T07:48:26;101874.88;;;21.88;38.54
51715;BME280;39115;59.332;18.034;2022-07-29T07:50:51;101874.34;;;21.93;38.55
51715;BME280;39115;59.332;18.034;2022-07-29T07:53:17;101874.63;;;21.98;38.54
51715;BME280;39115;59.332;18.034;2022-07-29T07:55:43;101868.47;;;22.04;38.05
51715;BME280;39115;59.332;18.034;2022-07-29T07:58:09;101871.66;;;22.08;37.87
51715;BME280;39115;59.332;18.034;2022-07-29T08:00:34;101872.78;;;22.14;37.74
51715;BME280;39115;59.332;18.034;2022-07-29T08:03:00;101869.72;;;22.17;37.52
51715;BME280;39115;59.332;18.034;2022-07-29T08:05:25;101881.22;;;22.19;37.56
51715;BME280;39115;59.332;18.034;2022-07-29T08:07:51;101870.66;;;22.24;37.49
51715;BME280;39115;59.332;18.034;2022-07-29T08:10:18;101876.34;;;22.29;37.28
51715;BME280;39115;59.332;18.034;2022-07-29T08:13:08;101876.75;;;22.26;37.24
51715;BME280;39115;59.332;18.034;2022-07-29T08:15:35;101875.31;;;22.30;37.17
51715;BME280;39115;59.332;18.034;2022-07-29T08:18:01;101873.03;;;22.42;37.14
51715;BME280;39115;59.332;18.034;2022-07-29T08:20:27;101878.28;;;22.58;37.06
51715;BME280;39115;59.332;18.034;2022-07-29T08:22:52;101882.03;;;22.72;36.70
51715;BME280;39115;59.332;18.034;2022-07-29T08:25:19;101872.56;;;22.83;36.54
51715;BME280;39115;59.332;18.034;2022-07-29T08:27:48;101878.25;;;22.88;36.20
51715;BME280;39115;59.332;18.034;2022-07-29T08:30:14;101883.41;;;22.68;36.25
51715;BME280;39115;59.332;18.034;2022-07-29T08:32:39;101879.31;;;22.42;36.35
51715;BME280;39115;59.332;18.034;2022-07-29T08:35:05;101881.84;;;22.21;36.73
51715;BME280;39115;59.332;18.034;2022-07-29T08:37:30;101884.06;;;22.02;36.80
51715;BME280;39115;59.332;18.034;2022-07-29T08:39:56;101882.28;;;21.94;36.73
51715;BME280;39115;59.332;18.034;2022-07-29T08:42:21;101879.63;;;21.86;36.88
51715;BME280;39115;59.332;18.034;2022-07-29T08:44:47;101877.31;;;21.83;37.11
51715;BME280;39115;59.332;18.034;2022-07-29T08:47:16;101878.44;;;21.89;36.66
51715;BME280;39115;59.332;18.034;2022-07-29T08:49:42;101876.09;;;21.86;36.70
51715;BME280;39115;59.332;18.034;2022-07-29T08:52:11;101870.78;;;21.92;36.73
51715;BME280;39115;59.332;18.034;2022-07-29T08:54:37;101878.25;;;21.90;36.77
51715;BME280;39115;59.332;18.034;2022-07-29T08:57:04;101875.06;;;21.87;36.65
51715;BME280;39115;59.332;18.034;2022-07-29T08:59:30;101881.38;;;21.79;36.90
51715;BME280;39115;59.332;18.034;2022-07-29T09:01:59;101874.47;;;21.76;36.90
51715;BME280;39115;59.332;18.034;2022-07-29T09:04:30;101879.88;;;21.76;36.96
51715;BME280;39115;59.332;18.034;2022-07-29T09:07:00;101880.22;;;21.73;37.15
51715;BME280;39115;59.332;18.034;2022-07-29T09:09:28;101872.09;;;21.73;37.02
51715;BME280;39115;59.332;18.034;2022-07-29T09:11:53;101877.84;;;21.78;36.89
51715;BME280;39115;59.332;18.034;2022-07-29T09:14:19;101871.22;;;21.81;36.88
51715;BME280;39115;59.332;18.034;2022-07-29T09:16:56;101876.91;;;21.86;37.00
51715;BME280;39115;59.332;18.034;2022-07-29T09:19:24;101868.63;;;21.88;37.05
51715;BME280;39115;59.332;18.034;2022-07-29T09:21:49;101872.63;;;21.92;36.83
51715;BME280;39115;59.332;18.034;2022-07-29T09:24:36;101876.50;;;21.98;36.94
51715;BME280;39115;59.332;18.034;2022-07-29T09:27:22;101870.06;;;22.14;36.82
51715;BME280;39115;59.332;18.034;2022-07-29T09:30:05;101876.41;;;22.44;36.30
51715;BME280;39115;59.332;18.034;2022-07-29T09:32:31;101865.81;;;22.79;35.86
51715;BME280;39115;59.332;18.034;2022-07-29T09:35:20;101865.78;;;23.09;35.93
51715;BME280;39115;59.332;18.034;2022-07-29T09:37:46;101849.69;;;23.29;35.12
51715;BME280;39115;59.332;18.034;2022-07-29T09:40:14;101855.75;;;23.46;35.07
51715;BME280;39115;59.332;18.034;2022-07-29T09:42:41;101855.81;;;23.75;34.58
51715;BME280;39115;59.332;18.034;2022-07-29T09:45:06;101858.63;;;23.88;34.57
51715;BME280;39115;59.332;18.034;2022-07-29T09:47:46;101854.59;;;23.84;34.91
51715;BME280;39115;59.332;18.034;2022-07-29T09:50:14;101852.78;;;23.63;34.73
51715;BME280;39115;59.332;18.034;2022-07-29T09:52:51;101858.75;;;23.80;34.81
51715;BME280;39115;59.332;18.034;2022-07-29T09:55:18;101852.78;;;23.63;34.57
51715;BME280;39115;59.332;18.034;2022-07-29T09:57:45;101856.53;;;23.40;34.69
51715;BME280;39115;59.332;18.034;2022-07-29T10:00:13;101860.41;;;23.52;34.39
51715;BME280;39115;59.332;18.034;2022-07-29T10:02:41;101859.25;;;23.62;34.36
51715;BME280;39115;59.332;18.034;2022-07-29T10:05:20;101859.91;;;23.92;33.92
51715;BME280;39115;59.332;18.034;2022-07-29T10:07:49;101854.00;;;23.89;34.02
51715;BME280;39115;59.332;18.034;2022-07-29T10:12:57;101854.47;;;23.92;33.94
51715;BME280;39115;59.332;18.034;2022-07-29T10:15:25;101861.47;;;23.80;33.62
51715;BME280;39115;59.332;18.034;2022-07-29T10:17:52;101853.28;;;23.51;34.18
51715;BME280;39115;59.332;18.034;2022-07-29T10:20:18;101856.69;;;23.39;34.23
51715;BME280;39115;59.332;18.034;2022-07-29T10:22:44;101856.56;;;23.25;34.34
51715;BME280;39115;59.332;18.034;2022-07-29T10:25:12;101864.25;;;23.21;34.11
51715;BME280;39115;59.332;18.034;2022-07-29T10:27:39;101863.13;;;23.16;34.32
51715;BME280;39115;59.332;18.034;2022-07-29T10:30:05;101857.81;;;23.23;34.35
51715;BME280;39115;59.332;18.034;2022-07-29T10:35:44;101866.84;;;23.15;34.58
51715;BME280;39115;59.332;18.034;2022-07-29T10:43:54;101853.47;;;23.50;34.28
51715;BME280;39115;59.332;18.034;2022-07-29T10:46:20;101846.50;;;23.41;34.14
51715;BME280;39115;59.332;18.034;2022-07-29T10:54:16;101844.44;;;23.93;33.36
51715;BME280;39115;59.332;18.034;2022-07-29T10:56:41;101849.63;;;24.09;32.98
51715;BME280;39115;59.332;18.034;2022-07-29T11:01:52;101843.31;;;24.09;32.90
51715;BME280;39115;59.332;18.034;2022-07-29T11:07:08;101839.00;;;23.93;32.95
51715;BME280;39115;59.332;18.034;2022-07-29T11:09:34;101834.53;;;23.85;33.25
51715;BME280;39115;59.332;18.034;2022-07-29T11:12:00;101830.56;;;23.81;33.26
51715;BME280;39115;59.332;18.034;2022-07-29T11:17:20;101829.13;;;23.63;33.27
51715;BME280;39115;59.332;18.034;2022-07-29T11:19:45;101835.16;;;23.59;33.55
51715;BME280;39115;59.332;18.034;2022-07-29T11:22:31;101829.59;;;23.67;33.48
51715;BME280;39115;59.332;18.034;2022-07-29T11:25:17;101829.13;;;23.63;33.60
51715;BME280;39115;59.332;18.034;2022-07-29T11:27:44;101827.00;;;23.59;33.49
51715;BME280;39115;59.332;18.034;2022-07-29T11:30:10;101825.31;;;23.58;33.52
51715;BME280;39115;59.332;18.034;2022-07-29T11:32:40;101822.38;;;23.52;33.51
51715;BME280;39115;59.332;18.034;2022-07-29T11:35:35;101828.00;;;23.51;33.73
51715;BME280;39115;59.332;18.034;2022-07-29T11:41:25;101826.44;;;23.42;33.95
51715;BME280;39115;59.332;18.034;2022-07-29T11:43:56;101825.13;;;23.37;33.81
51715;BME280;39115;59.332;18.034;2022-07-29T11:46:48;101827.84;;;23.37;34.01
51715;BME280;39115;59.332;18.034;2022-07-29T11:49:22;101831.44;;;23.38;33.64
51715;BME280;39115;59.332;18.034;2022-07-29T11:51:52;101825.78;;;23.40;33.74
51715;BME280;39115;59.332;18.034;2022-07-29T11:54:24;101824.56;;;23.42;33.70
51715;BME280;39115;59.332;18.034;2022-07-29T11:56:53;101821.53;;;23.52;33.61
51715;BME280;39115;59.332;18.034;2022-07-29T11:59:20;101825.72;;;23.55;33.56
51715;BME280;39115;59.332;18.034;2022-07-29T12:01:54;101827.88;;;23.59;33.48
51715;BME280;39115;59.332;18.034;2022-07-29T12:04:19;101831.41;;;23.60;33.16
51715;BME280;39115;59.332;18.034;2022-07-29T12:06:52;101822.44;;;23.59;33.40
51715;BME280;39115;59.332;18.034;2022-07-29T12:09:18;101820.53;;;23.60;33.46
51715;BME280;39115;59.332;18.034;2022-07-29T12:11:45;101822.22;;;23.61;33.43
51715;BME280;39115;59.332;18.034;2022-07-29T12:14:30;101823.72;;;23.63;33.47
51715;BME280;39115;59.332;18.034;2022-07-29T12:16:56;101820.16;;;23.63;32.84
51715;BME280;39115;59.332;18.034;2022-07-29T12:19:23;101825.16;;;23.59;32.75
51715;BME280;39115;59.332;18.034;2022-07-29T12:21:50;101819.06;;;23.57;32.85
51715;BME280;39115;59.332;18.034;2022-07-29T12:24:16;101813.19;;;23.53;32.54
51715;BME280;39115;59.332;18.034;2022-07-29T12:26:53;101820.75;;;23.58;32.63
51715;BME280;39115;59.332;18.034;2022-07-29T12:29:19;101820.53;;;23.60;32.50
51715;BME280;39115;59.332;18.034;2022-07-29T12:31:45;101810.78;;;23.65;32.44
51715;BME280;39115;59.332;18.034;2022-07-29T12:34:15;101814.38;;;23.73;32.02
51715;BME280;39115;59.332;18.034;2022-07-29T12:36:42;101811.09;;;24.06;31.85
51715;BME280;39115;59.332;18.034;2022-07-29T12:39:08;101816.53;;;24.41;31.35
51715;BME280;39115;59.332;18.034;2022-07-29T12:41:34;101812.78;;;24.42;31.14
51715;BME280;39115;59.332;18.034;2022-07-29T12:44:00;101808.53;;;24.33;31.19
51715;BME280;39115;59.332;18.034;2022-07-29T12:46:25;101806.03;;;24.31;31.31
51715;BME280;39115;59.332;18.034;2022-07-29T12:48:52;101805.53;;;24.62;30.53
51715;BME280;39115;59.332;18.034;2022-07-29T12:51:32;101803.09;;;24.68;30.78
51715;BME280;39115;59.332;18.034;2022-07-29T12:56:29;101804.00;;;24.46;31.18
51715;BME280;39115;59.332;18.034;2022-07-29T12:58:57;101798.13;;;24.43;30.96
51715;BME280;39115;59.332;18.034;2022-07-29T13:01:23;101802.28;;;24.39;30.99
51715;BME280;39115;59.332;18.034;2022-07-29T13:03:58;101799.13;;;24.28;31.06
51715;BME280;39115;59.332;18.034;2022-07-29T13:06:31;101800.16;;;24.27;31.06
51715;BME280;39115;59.332;18.034;2022-07-29T13:14:05;101794.84;;;24.61;31.00
51715;BME280;39115;59.332;18.034;2022-07-29T13:16:31;101797.03;;;24.72;30.71
51715;BME280;39115;59.332;18.034;2022-07-29T13:19:10;101785.09;;;24.73;30.72
51715;BME280;39115;59.332;18.034;2022-07-29T13:21:37;101785.22;;;24.65;30.94
51715;BME280;39115;59.332;18.034;2022-07-29T13:24:05;101786.25;;;24.57;30.96
51715;BME280;39115;59.332;18.034;2022-07-29T13:26:31;101793.34;;;24.52;31.19
51715;BME280;39115;59.332;18.034;2022-07-29T13:28:57;101788.16;;;24.57;31.21